Tiempo atmosférico en la estación meteorológica de El Pedregal, Guadalajara (1185 m.)

Fecha
DESCASC
Temp. máxima en grados centígrados (hora)
DESCASC
Temp. mínima en grados centígrados (hora)
DESCASC
Temp. media en grados centígrados
DESCASC
Racha de viento máxima en m/sg (hora)
DESCASC
Velocidad máxima media en intervalos de 10 minutos(hora)
DESCASC
Precipitaciones diarias en mm
DESCASC
Precipitaciones de 00:00 a 06:00 en mm
DESCASC
Precipitaciones de 06:00 a 12:00 en mm
DESCASC
Precipitaciones de 12:00 a 18:00 en mm
DESCASC
Precipitaciones de 18:00 a 24:00 en mm
DESCASC
17-08-2017 34.6 (18:40) 12.8 (07:20) 23.7 9.72 (21:50) 6.94 (21:50) 0 0 0 0 0
16-08-2017 33.2 (17:00) 16.1 (07:40) 24.7 10 (13:10) 6.11 (19:50) 0 0 0 0 0
15-08-2017 32.5 (15:10) 14.5 (00:00) 23.5 15.28 (16:40) 7.22 (16:40) 0.2 0 0.2 0 0
14-08-2017 32.3 (14:20) 13.2 (07:30) 22.7 12.78 (13:30) 6.94 (19:50) 0 0 0 0 0
13-08-2017 30 (14:30) 10.2 (00:00) 20.1 9.44 (21:40) 6.39 (21:40) 0 0 0 0 0
12-08-2017 29.4 (17:10) 6.5 (00:00) 17.9 8.61 (19:30) 5 (19:30) 0 0 0 0 0
11-08-2017 25.2 (17:40) 5 (00:00) 15.1 7.5 (20:20) 4.44 (20:20) 0 0 0 0 0
10-08-2017 21.7 (18:00) 3.5 (00:00) 12.6 9.44 (18:40) 5.56 (19:20) 0 0 0 0 0
09-08-2017 20.6 (12:00) 7.6 (00:00) 14.1 10.83 (17:00) 6.39 (16:30) 0 0 0 0 0
08-08-2017 25.3 (00:00) 12.6 (00:00) 18.9 10.83 (17:40) 6.11 (18:50) 0 0 0 0 0
07-08-2017 33.3 (18:40) 13.7 (00:00) 23.5 16.67 (17:20) 10 (17:30) 0 0 0 0 0
06-08-2017 30.8 (17:00) 11.8 (00:00) 21.3 12.5 (20:00) 8.89 (19:30) 0.6 0 0 0 0.6
05-08-2017 34.4 (13:20) 18.4 (00:00) 26.4 11.67 (15:00) 6.39 (15:40) 1 0 0 1 0
04-08-2017 35.7 (18:00) 19.6 (00:00) 27.7 8.33 (17:00) 5 (02:30) 0 0 0 0 0
03-08-2017 35.4 (17:30) 16.2 (00:00) 25.8 7.5 (17:10) 4.44 (16:50) 0 0 0 0 0
02-08-2017 -- (--) -- (--) -- -- (--) -- (--) -- 0 1.2 0.4 --
01-08-2017 33.2 (17:40) 15.4 (00:00) 24.3 11.39 (15:50) 5.83 (15:50) 0 0 0 0 0
31-07-2017 34.1 (17:00) 18.4 (00:00) 26.2 13.89 (15:30) 7.78 (17:20) 0 0 0 0 0
30-07-2017 33.9 (18:20) 16.5 (00:00) 25.2 14.17 (14:10) 8.06 (14:10) 0 0 0 0 0
29-07-2017 33.6 (15:50) 13.1 (00:00) 23.3 11.94 (13:00) 6.39 (12:00) 0 0 0 0 0
28-07-2017 34.6 (19:00) 15.2 (00:00) 24.9 10.83 (15:50) 5.28 (20:10) 0 0 0 0 0
27-07-2017 34 (17:50) 13.1 (00:00) 23.6 10.83 (14:20) 5 (15:00) 0 0 0 0 0
26-07-2017 30 (19:20) 9.5 (00:00) 19.8 8.61 (15:20) 4.44 (15:10) 0 0 0 0 0
25-07-2017 25.9 (17:50) 10.3 (00:00) 18.1 8.61 (15:20) 4.72 (17:50) 0 0 0 0 0
24-07-2017 27.4 (17:40) 11.1 (00:00) 19.3 11.39 (19:40) 7.22 (19:10) 0 0 0 0 0
23-07-2017 28.5 (18:50) 10.4 (00:00) 19.4 10.83 (14:50) 7.22 (15:10) 0 0 0 0 0
22-07-2017 30.6 (18:40) 14.6 (00:00) 22.6 11.94 (12:20) 5.83 (17:50) 0 0 0 0 0
21-07-2017 28.5 (18:10) 16.2 (00:00) 22.4 11.67 (18:00) 6.11 (18:30) 0 0 0 0 0
20-07-2017 29.8 (17:00) 12.7 (00:00) 21.2 11.39 (18:50) 6.39 (17:30) 0 0 0 0 0
19-07-2017 31 (17:30) 18.1 (00:00) 24.6 16.67 (04:20) 9.17 (04:20) 0.6 0.6 0 0 0

Gráficas

Temp. máximas Temp. mínimas Temp. medias Precipitaciones Rachas de viento máximas Velocidades máximas media en intervalos de 10 minutos

Datos horarios

Fecha y hora oficial Temperatura (ºC) Velocidad del viento (km/h) Dirección del viento Racha (km/h) Dirección de racha Precipitación (mm) Presión (hPa) Tendencia (hPa) Humedad (%)
2017-08-17 23:00:00 23.5 5 Sudeste 33 Este 0 -- -- 55
2017-08-17 22:00:00 25.8 23 Este 35 Este 0 -- -- 50
2017-08-17 21:00:00 28.4 14 Sudeste 22 Sudeste 0 -- -- 40
2017-08-17 20:00:00 30 14 Sur 27 Sur 0 -- -- 38
2017-08-17 19:00:00 33.3 9 Este 24 Este 0 -- -- 27
2017-08-17 18:00:00 34.3 12 Este 28 Este 0 -- -- 25
2017-08-17 17:00:00 33.9 12 Este 26 Este 0 -- -- 25
2017-08-17 16:00:00 33.9 12 Este 24 Nordeste 0 -- -- 25
2017-08-17 15:00:00 32.1 13 Sudeste 26 Este 0 -- -- 28
2017-08-17 14:00:00 31.7 14 Este 23 Sudeste 0 -- -- 30
2017-08-17 13:00:00 30.4 8 Nordeste 18 Este 0 -- -- 30
2017-08-17 12:00:00 28.7 9 Nordeste 18 Este 0 -- -- 36
2017-08-17 11:00:00 26.7 8 Sudeste 15 Sudeste 0 -- -- 38
2017-08-17 10:00:00 24.9 6 Sudeste 12 Este 0 -- -- 39
2017-08-17 09:00:00 19.5 0 Calma 5 Oeste 0 -- -- 42
2017-08-17 08:00:00 13.7 3 Oeste 6 Oeste 0 -- -- 56
2017-08-17 07:00:00 13.3 0 Calma 5 Oeste 0 -- -- 63
2017-08-17 06:00:00 13.3 3 Nordeste 6 Este 0 -- -- 62
2017-08-17 05:00:00 14 0 Calma 6 Oeste 0 -- -- 60
2017-08-17 04:00:00 14.5 0 Calma 7 Este 0 -- -- 61
2017-08-17 03:00:00 15.4 5 Este 8 Este 0 -- -- 60
2017-08-17 02:00:00 16.8 3 Nordeste 5 Este 0 -- -- 59
2017-08-17 01:00:00 18 0 Calma 15 Nordeste 0 -- -- 60
2017-08-17 00:00:00 19.5 9 Nordeste 19 Nordeste 0 -- -- 63
2017-08-16 23:00:00 21.2 14 Nordeste 22 Este 0 -- -- 54
2017-08-16 22:00:00 23.4 13 Este 28 Este 0 -- -- 50
2017-08-16 21:00:00 25 21 Este 32 Este 0 -- -- 47
2017-08-16 20:00:00 28.5 21 Este 34 Este 0 -- -- 36
2017-08-16 19:00:00 31 15 Nordeste 27 Nordeste 0 -- -- 31
2017-08-16 18:00:00 31.3 14 Nordeste 23 Oeste 0 -- -- 30
2017-08-16 17:00:00 33.2 8 Noroeste 31 Noroeste 0 -- -- 17
2017-08-16 16:00:00 31.6 17 Oeste 31 Oeste 0 -- -- 18
2017-08-16 15:00:00 31.5 15 Sudoeste 35 Oeste 0 -- -- 18
2017-08-16 14:00:00 30.9 16 Oeste 36 Oeste 0 -- -- 20
2017-08-16 13:00:00 29.9 12 Noroeste 27 Noroeste 0 -- -- 26
2017-08-16 12:00:00 29 7 Noroeste 23 Oeste 0 -- -- 29
2017-08-16 11:00:00 26.8 8 Norte 17 Nordeste 0 -- -- 35
2017-08-16 10:00:00 24.2 6 Nordeste 12 Nordeste 0 -- -- 42
2017-08-16 09:00:00 22 5 Oeste 11 Oeste 0 -- -- 45
2017-08-16 08:00:00 16.5 10 Oeste 12 Oeste 0 -- -- 57
2017-08-16 07:00:00 17.7 8 Oeste 11 Oeste 0 -- -- 55
2017-08-16 06:00:00 18.2 6 Oeste 9 Oeste 0 -- -- 46
2017-08-16 05:00:00 19.9 6 Oeste 13 Sudoeste 0 -- -- 42
2017-08-16 04:00:00 20.8 7 Oeste 25 Sudoeste 0 -- -- 40
2017-08-16 03:00:00 22.9 17 Sudoeste 23 Sudoeste 0 -- -- 34
2017-08-16 02:00:00 20.3 2 Sudoeste 22 Sudoeste 0 -- -- 42
2017-08-16 01:00:00 24.3 17 Sudoeste 25 Sudoeste 0 -- -- 33
2017-08-16 00:00:00 19.8 0 Calma 5 Sudeste 0 -- -- 53
2017-08-15 23:00:00 21.6 2 Oeste 22 Sudeste 0 -- -- 37
2017-08-15 22:00:00 22.5 4 Oeste 6 Oeste 0 -- -- 30
2017-08-15 21:00:00 27.5 6 Oeste 28 Noroeste 0 -- -- 23
2017-08-15 20:00:00 30.3 19 Oeste 40 Oeste 0 -- -- 21
2017-08-15 19:00:00 30.6 24 Oeste 40 Oeste 0 -- -- 20
2017-08-15 18:00:00 31 24 Oeste 40 Oeste 0 -- -- 24
2017-08-15 17:00:00 31.8 21 Oeste 55 Oeste 0 -- -- 25
2017-08-15 16:00:00 32.5 24 Oeste 43 Sudoeste 0 -- -- 25
2017-08-15 15:00:00 31.6 18 Oeste 41 Oeste 0 -- -- 28
2017-08-15 14:00:00 31.3 20 Oeste 36 Oeste 0 -- -- 29
2017-08-15 13:00:00 30.5 18 Oeste 33 Oeste 0 -- -- 32
2017-08-15 12:00:00 29.9 9 Oeste 21 Oeste 0 -- -- 31
2017-08-15 11:00:00 28.5 9 Sudoeste 20 Sudoeste 0 -- -- 34
2017-08-15 10:00:00 23.5 2 Nordeste 7 Este 0 -- -- 42
2017-08-15 09:00:00 20 0 Calma 4 Este 0 -- -- 52
2017-08-15 08:00:00 16 0 Calma 6 Oeste 0.2 -- -- 68
2017-08-15 07:00:00 14.5 3 Oeste 6 Oeste 0 -- -- 60
2017-08-15 06:00:00 15.4 0 Calma 7 Oeste 0 -- -- 56
2017-08-15 05:00:00 16.9 0 Calma 10 Sur 0 -- -- 51
2017-08-15 04:00:00 17.4 6 Sudeste 10 Sur 0 -- -- 49
2017-08-15 03:00:00 18.3 6 Norte 15 Nordeste 0 -- -- 47
2017-08-15 02:00:00 21.2 8 Sudeste 28 Sudoeste 0 -- -- 35
2017-08-15 01:00:00 23.2 20 Sudoeste 36 Sudoeste 0 -- -- 31
2017-08-15 00:00:00 23.3 22 Sudoeste 36 Sudoeste 0 -- -- 31
2017-08-14 23:00:00 23.5 19 Sudoeste 36 Sudoeste 0 -- -- 34
2017-08-14 22:00:00 24.4 12 Sudoeste 24 Sudoeste 0 -- -- 37
2017-08-14 21:00:00 27.1 16 Sudoeste 35 Sudoeste 0 -- -- 34
2017-08-14 20:00:00 28.8 18 Sudeste 40 Sudeste 0 -- -- 30
2017-08-14 19:00:00 29.2 23 Sudeste 40 Sudeste 0 -- -- 29
2017-08-14 18:00:00 30.2 24 Sudeste 41 Sudeste 0 -- -- 26
2017-08-14 17:00:00 30.6 16 Este 35 Este 0 -- -- 22
2017-08-14 16:00:00 30 21 Sudeste 40 Sudeste 0 -- -- 21
2017-08-14 15:00:00 29.9 16 Sudeste 39 Este 0 -- -- 22
2017-08-14 14:00:00 30.9 17 Sur 46 Sur 0 -- -- 22
2017-08-14 13:00:00 30.1 8 Sur 26 Noroeste 0 -- -- 24
2017-08-14 12:00:00 29.9 6 Norte 17 Este 0 -- -- 25
2017-08-14 11:00:00 27.4 11 Este 17 Este 0 -- -- 32
2017-08-14 10:00:00 24.2 5 Sudeste 9 Sudeste 0 -- -- 36
2017-08-14 09:00:00 20 5 Sudeste 10 Oeste 0 -- -- 47
2017-08-14 08:00:00 14.7 6 Oeste 9 Oeste 0 -- -- 63
2017-08-14 07:00:00 13.9 3 Oeste 8 Oeste 0 -- -- 65
2017-08-14 06:00:00 14.8 5 Oeste 8 Oeste 0 -- -- 63
2017-08-14 05:00:00 14.9 2 Noroeste 6 Noroeste 0 -- -- 67
2017-08-14 04:00:00 16.9 3 Noroeste 21 Sur 0 -- -- 63
2017-08-14 03:00:00 20.5 11 Sur 28 Sur 0 -- -- 52
2017-08-14 02:00:00 21 15 Sur 32 Sudoeste 0 -- -- 55
2017-08-14 01:00:00 20.6 13 Sudoeste 23 Sudoeste 0 -- -- 57
2017-08-14 00:00:00 19.3 4 Sur 19 Sudeste 0 -- -- 61
2017-08-13 23:00:00 20.5 12 Sudeste 31 Este 0 -- -- 57
2017-08-13 22:00:00 22.1 18 Este 34 Este 0 -- -- 53
2017-08-13 21:00:00 24.1 16 Este 24 Este 0 -- -- 43
2017-08-13 20:00:00 27.2 14 Sudeste 32 Sudeste 0 -- -- 37
2017-08-13 19:00:00 27.9 15 Sur 30 Sudeste 0 -- -- 30
2017-08-13 18:00:00 29 13 Sudeste 31 Sudeste 0 -- -- 25
2017-08-13 17:00:00 28.9 12 Sudeste 23 Este 0 -- -- 27
2017-08-13 16:00:00 29 11 Este 24 Este 0 -- -- 28
2017-08-13 15:00:00 28.6 10 Sudeste 22 Sudeste 0 -- -- 30
2017-08-13 14:00:00 29.2 10 Este 22 Sudeste 0 -- -- 30
2017-08-13 13:00:00 28.4 13 Sudeste 22 Este 0 -- -- 32
2017-08-13 12:00:00 26.8 10 Este 18 Este 0 -- -- 37
2017-08-13 11:00:00 24.4 12 Este 16 Este 0 -- -- 44
2017-08-13 10:00:00 22.9 4 Nordeste 7 Oeste 0 -- -- 49
2017-08-13 09:00:00 16.7 2 Sudoeste 6 Oeste 0 -- -- 66
2017-08-13 08:00:00 12.1 5 Oeste 9 Oeste 0 -- -- 80
2017-08-13 07:00:00 10.2 4 Oeste 9 Oeste 0 -- -- 82
2017-08-13 06:00:00 11.1 6 Oeste 8 Oeste 0 -- -- 79
2017-08-13 05:00:00 11.2 4 Oeste 8 Oeste 0 -- -- 73
2017-08-13 04:00:00 11.8 5 Oeste 6 Oeste 0 -- -- 66
2017-08-13 03:00:00 12.3 0 Calma 9 Oeste 0 -- -- 56
2017-08-13 02:00:00 12.4 4 Oeste 8 Oeste 0 -- -- 55
2017-08-13 01:00:00 13.7 3 Oeste 8 Oeste 0 -- -- 46
2017-08-13 00:00:00 16.5 2 Sudoeste 11 Sudeste 0 -- -- 39
2017-08-12 23:00:00 18.5 10 Sudeste 13 Sudeste 0 -- -- 35
2017-08-12 22:00:00 20.4 12 Este 20 Este 0 -- -- 31
2017-08-12 21:00:00 22.6 13 Este 27 Nordeste 0 -- -- 29
2017-08-12 20:00:00 26.6 15 Este 31 Este 0 -- -- 25
2017-08-12 19:00:00 28.3 11 Nordeste 25 Nordeste 0 -- -- 23
2017-08-12 18:00:00 28.8 11 Nordeste 26 Nordeste 0 -- -- 20
2017-08-12 17:00:00 28.3 13 Norte 22 Nordeste 0 -- -- 21
2017-08-12 16:00:00 27.4 8 Nordeste 24 Nordeste 0 -- -- 21
2017-08-12 15:00:00 26.6 6 Oeste 24 Nordeste 0 -- -- 21
2017-08-12 14:00:00 26.2 8 Nordeste 21 Este 0 -- -- 22
2017-08-12 13:00:00 24.7 6 Sudeste 20 Este 0 -- -- 23
2017-08-12 12:00:00 24.1 9 Este 19 Este 0 -- -- 24
2017-08-12 11:00:00 23.1 8 Este 13 Este 0 -- -- 24
2017-08-12 10:00:00 20 4 Sudeste 10 Sudeste 0 -- -- 31
2017-08-12 09:00:00 15.9 2 Este 9 Sudoeste 0 -- -- 43
2017-08-12 08:00:00 9.4 6 Oeste 12 Oeste 0 -- -- 58
2017-08-12 07:00:00 7.1 4 Oeste 9 Oeste 0 -- -- 67
2017-08-12 06:00:00 6.5 0 Calma 6 Oeste 0 -- -- 70
2017-08-12 05:00:00 7.5 3 Oeste 11 Oeste 0 -- -- 66
2017-08-12 04:00:00 7.8 3 Oeste 7 Oeste 0 -- -- 67
2017-08-12 03:00:00 8.6 5 Oeste 8 Oeste 0 -- -- 66
2017-08-12 02:00:00 9.1 5 Oeste 8 Oeste 0 -- -- 66
2017-08-12 01:00:00 9.4 3 Oeste 6 Oeste 0 -- -- 64
2017-08-12 00:00:00 10.8 2 Sudoeste 8 Oeste 0 -- -- 59
2017-08-11 23:00:00 13.2 3 Nordeste 13 Este 0 -- -- 54
2017-08-11 22:00:00 14.9 6 Este 19 Nordeste 0 -- -- 48
2017-08-11 21:00:00 17.9 12 Nordeste 27 Nordeste 0 -- -- 39
2017-08-11 20:00:00 22.7 13 Nordeste 22 Nordeste 0 -- -- 27
2017-08-11 19:00:00 24.7 11 Nordeste 24 Norte 0 -- -- 19
2017-08-11 18:00:00 24.5 12 Noroeste 24 Norte 0 -- -- 18
2017-08-11 17:00:00 24.9 12 Nordeste 24 Nordeste 0 -- -- 16
2017-08-11 16:00:00 24.5 9 Nordeste 23 Nordeste 0 -- -- 17
2017-08-11 15:00:00 22.3 9 Noroeste 23 Noroeste 0 -- -- 22
2017-08-11 14:00:00 21.5 9 Norte 19 Norte 0 -- -- 25
2017-08-11 13:00:00 21.1 8 Nordeste 18 Sudeste 0 -- -- 27
2017-08-11 12:00:00 17 9 Oeste 18 Norte 0 -- -- 38
2017-08-11 11:00:00 16.1 5 Nordeste 13 Este 0 -- -- 47
2017-08-11 10:00:00 11.8 3 Sudeste 10 Sudeste 0 -- -- 64
2017-08-11 09:00:00 9.3 2 Nordeste 6 Nordeste 0 -- -- 81
2017-08-11 08:00:00 6.4 4 Oeste 6 Oeste 0 -- -- 90
2017-08-11 07:00:00 5.4 3 Oeste 8 Oeste 0 -- -- 90
2017-08-11 06:00:00 6.3 2 Sudoeste 6 Sur 0 -- -- 89
2017-08-11 05:00:00 7.9 3 Sur 4 Sur 0 -- -- 88
2017-08-11 04:00:00 7.5 2 Sudoeste 10 Sudeste 0 -- -- 89
2017-08-11 03:00:00 8.5 4 Sudeste 8 Sudeste 0 -- -- 87
2017-08-11 02:00:00 7.7 0 Calma 5 Sudeste 0 -- -- 85
2017-08-11 01:00:00 9.2 4 Sudeste 9 Sur 0 -- -- 83
2017-08-11 00:00:00 10.2 6 Este 15 Nordeste 0 -- -- 79
2017-08-10 23:00:00 11.2 5 Nordeste 21 Nordeste 0 -- -- 72
2017-08-10 22:00:00 12.7 10 Nordeste 24 Nordeste 0 -- -- 66
2017-08-10 21:00:00 15 17 Nordeste 27 Este 0 -- -- 56
2017-08-10 20:00:00 18.5 18 Nordeste 32 Este 0 -- -- 46
2017-08-10 19:00:00 20.5 16 Nordeste 34 Nordeste 0 -- -- 40
2017-08-10 18:00:00 21.7 10 Norte 27 Noroeste 0 -- -- 33
2017-08-10 17:00:00 20.7 10 Nordeste 31 Nordeste 0 -- -- 37
2017-08-10 16:00:00 19.4 12 Noroeste 27 Nordeste 0 -- -- 39
2017-08-10 15:00:00 19.9 13 Nordeste 30 Nordeste 0 -- -- 39
2017-08-10 14:00:00 18.2 14 Nordeste 27 Norte 0 -- -- 41
2017-08-10 13:00:00 17.2 15 Nordeste 32 Norte 0 -- -- 44
2017-08-10 12:00:00 16.4 13 Nordeste 30 Este 0 -- -- 46
2017-08-10 11:00:00 14.1 13 Nordeste 27 Nordeste 0 -- -- 56
2017-08-10 10:00:00 11.6 14 Nordeste 23 Este 0 -- -- 65
2017-08-10 09:00:00 9.6 3 Sudeste 8 Sudeste 0 -- -- 77
2017-08-10 08:00:00 4.3 0 Calma 4 Oeste 0 -- -- 90
2017-08-10 07:00:00 3.7 0 Calma 3 Sudoeste 0 -- -- 89
2017-08-10 06:00:00 4.2 0 Calma 4 Oeste 0 -- -- 88
2017-08-10 05:00:00 5 3 Oeste 5 Oeste 0 -- -- 87
2017-08-10 04:00:00 6.2 2 Sur 8 Nordeste 0 -- -- 85
2017-08-10 03:00:00 7.3 4 Nordeste 21 Nordeste 0 -- -- 80
2017-08-10 02:00:00 8.6 6 Nordeste 23 Nordeste 0 -- -- 75
2017-08-10 01:00:00 9.5 15 Nordeste 29 Nordeste 0 -- -- 72
2017-08-10 00:00:00 10.4 15 Nordeste 24 Nordeste 0 -- -- 67
2017-08-09 23:00:00 10.9 13 Nordeste 27 Nordeste 0 -- -- 65
2017-08-09 22:00:00 11.2 17 Nordeste 29 Nordeste 0 -- -- 67
2017-08-09 21:00:00 11.6 17 Nordeste 27 Nordeste 0 -- -- 67
2017-08-09 20:00:00 11.9 19 Nordeste 36 Nordeste 0 -- -- 67
2017-08-09 19:00:00 13.6 19 Nordeste 34 Nordeste 0 -- -- 63
2017-08-09 18:00:00 16.4 21 Nordeste 35 Nordeste 0 -- -- 55
2017-08-09 17:00:00 16.9 23 Nordeste 39 Nordeste 0 -- -- 54
2017-08-09 16:00:00 16.9 21 Nordeste 32 Norte 0 -- -- 53
2017-08-09 15:00:00 18.9 20 Nordeste 34 Nordeste 0 -- -- 48
2017-08-09 14:00:00 20.1 18 Nordeste 31 Nordeste 0 -- -- 48
2017-08-09 13:00:00 19.5 19 Nordeste 30 Nordeste 0 -- -- 50
2017-08-09 12:00:00 20.6 11 Este 24 Este 0 -- -- 48
2017-08-09 11:00:00 17.3 13 Sudeste 20 Sudeste 0 -- -- 55
2017-08-09 10:00:00 15.4 10 Nordeste 17 Nordeste 0 -- -- 59
2017-08-09 09:00:00 12.4 7 Nordeste 10 Nordeste 0 -- -- 69
2017-08-09 08:00:00 8.8 3 Nordeste 5 Nordeste 0 -- -- 83
2017-08-09 07:00:00 7.9 3 Nordeste 7 Este 0 -- -- 82
2017-08-09 06:00:00 8.5 5 Nordeste 11 Sudeste 0 -- -- 81
2017-08-09 05:00:00 10.3 8 Sudeste 12 Sudeste 0 -- -- 76
2017-08-09 04:00:00 9.7 8 Sudeste 12 Sudeste 0 -- -- 78
2017-08-09 03:00:00 10.1 6 Sudeste 12 Este 0 -- -- 73
2017-08-09 02:00:00 11.4 6 Sudeste 12 Sudeste 0 -- -- 69
2017-08-09 01:00:00 11.8 5 Sudeste 12 Este 0 -- -- 67
2017-08-09 00:00:00 12.8 12 Sudeste 21 Sudeste 0 -- -- 64
2017-08-08 23:00:00 13.8 10 Este 18 Nordeste 0 -- -- 59
2017-08-08 22:00:00 15.2 8 Norte 18 Nordeste 0 -- -- 52
2017-08-08 21:00:00 17.3 13 Nordeste 27 Nordeste 0 -- -- 46
2017-08-08 20:00:00 21.4 18 Nordeste 30 Este 0 -- -- 35
2017-08-08 19:00:00 22.9 21 Nordeste 33 Este 0 -- -- 33
2017-08-08 18:00:00 24.3 16 Norte 39 Norte 0 -- -- 29
2017-08-08 17:00:00 24.3 18 Nordeste 31 Nordeste 0 -- -- 31
2017-08-08 16:00:00 23.4 14 Norte 30 Norte 0 -- -- 33
2017-08-08 15:00:00 23.2 17 Norte 34 Norte 0 -- -- 36
2017-08-08 14:00:00 22.4 11 Noroeste 37 Norte 0 -- -- 40
2017-08-08 13:00:00 20.3 8 Norte 26 Nordeste 0 -- -- 50
2017-08-08 12:00:00 20.3 11 Nordeste 23 Norte 0 -- -- 53
2017-08-08 11:00:00 18.7 11 Nordeste 22 Este 0 -- -- 60
2017-08-08 10:00:00 16.5 5 Nordeste 14 Nordeste 0 -- -- 73
2017-08-08 09:00:00 14.6 6 Nordeste 11 Nordeste 0 -- -- 82
2017-08-08 08:00:00 13.2 6 Nordeste 10 Norte 0 -- -- 88
2017-08-08 07:00:00 12.8 3 Oeste 14 Noroeste 0 -- -- 47
2017-08-08 06:00:00 15.2 9 Oeste 15 Oeste 0 -- -- 38
2017-08-08 05:00:00 15.1 10 Oeste 14 Oeste 0 -- -- 30
2017-08-08 04:00:00 16.7 8 Oeste 10 Oeste 0 -- -- 27
2017-08-08 03:00:00 19.8 0 Calma 17 Sudoeste 0 -- -- 25
2017-08-08 02:00:00 23.8 9 Sudoeste 21 Sudoeste 0 -- -- 19
2017-08-08 01:00:00 21.4 3 Este 23 Sudoeste 0 -- -- 27
2017-08-08 00:00:00 25.3 14 Sudoeste 26 Sudoeste 0 -- -- 20
2017-08-07 23:00:00 23.8 14 Sur 21 Sudoeste 0 -- -- 27
2017-08-07 22:00:00 26.8 5 Sudoeste 16 Sudoeste 0 -- -- 19
2017-08-07 21:00:00 29.1 11 Oeste 41 Oeste 0 -- -- 17
2017-08-07 20:00:00 31.2 24 Oeste 45 Oeste 0 -- -- 16
2017-08-07 19:00:00 32.2 23 Oeste 48 Oeste 0 -- -- 15
2017-08-07 18:00:00 31.9 25 Oeste 60 Oeste 0 -- -- 15
2017-08-07 17:00:00 32.3 28 Sudoeste 48 Oeste 0 -- -- 15
2017-08-07 16:00:00 32.3 28 Oeste 52 Oeste 0 -- -- 16
2017-08-07 15:00:00 32 22 Oeste 47 Sudoeste 0 -- -- 17
2017-08-07 14:00:00 31 23 Oeste 48 Oeste 0 -- -- 20
2017-08-07 13:00:00 30.8 22 Oeste 45 Oeste 0 -- -- 19
2017-08-07 12:00:00 29.6 18 Sudoeste 38 Oeste 0 -- -- 25
2017-08-07 11:00:00 25.4 12 Sur 21 Sur 0 -- -- 58
2017-08-07 10:00:00 24.8 12 Sudoeste 20 Sudoeste 0 -- -- 45
2017-08-07 09:00:00 20.3 4 Sudeste 8 Sudeste 0 -- -- 82
2017-08-07 08:00:00 15.3 2 Sudeste 7 Este 0 -- -- 97
2017-08-07 07:00:00 14.2 0 Calma 6 Oeste 0 -- -- 96
2017-08-07 06:00:00 14.7 2 Noroeste 7 Oeste 0 -- -- 95
2017-08-07 05:00:00 15.1 4 Oeste 8 Oeste 0 -- -- 95
2017-08-07 04:00:00 15.9 2 Oeste 6 Oeste 0 -- -- 95
2017-08-07 03:00:00 17.4 2 Sur 9 Sudeste 0 -- -- 95
2017-08-07 02:00:00 18.1 6 Sudeste 10 Sudeste 0 -- -- 94
2017-08-07 01:00:00 18.7 3 Sudeste 12 Este 0 -- -- 92
2017-08-07 00:00:00 19.4 6 Este 10 Este 0 -- -- 90
2017-08-06 23:00:00 20.7 6 Sudeste 14 Nordeste 0 -- -- 85
2017-08-06 22:00:00 21.7 5 Sur 38 Este 0.6 -- -- 76
2017-08-06 21:00:00 24.7 29 Este 44 Este 0 -- -- 52
2017-08-06 20:00:00 26.4 31 Este 45 Este 0 -- -- 48
2017-08-06 19:00:00 29.5 27 Este 41 Este 0 -- -- 44
2017-08-06 18:00:00 29.6 27 Nordeste 40 Nordeste 0 -- -- 41
2017-08-06 17:00:00 30.8 26 Este 41 Sudeste 0 -- -- 44
2017-08-06 16:00:00 29.9 20 Este 36 Este 0 -- -- 45
2017-08-06 15:00:00 28.1 21 Este 34 Este 0 -- -- 47
2017-08-06 14:00:00 26.5 18 Este 30 Este 0 -- -- 43
2017-08-06 13:00:00 25.2 17 Este 30 Sudeste 0 -- -- 46
2017-08-06 12:00:00 22.7 14 Este 26 Este 0 -- -- 51
2017-08-06 11:00:00 20.1 16 Sudeste 26 Este 0 -- -- 57
2017-08-06 10:00:00 17.5 12 Sudeste 20 Este 0 -- -- 69
2017-08-06 09:00:00 15.1 13 Este 19 Este 0 -- -- 78
2017-08-06 08:00:00 12.7 5 Este 10 Este 0 -- -- 89
2017-08-06 07:00:00 11.9 5 Este 12 Este 0 -- -- 89
2017-08-06 06:00:00 12.5 5 Nordeste 11 Nordeste 0 -- -- 89
2017-08-06 05:00:00 13.6 7 Nordeste 12 Nordeste 0 -- -- 85
2017-08-06 04:00:00 14 6 Nordeste 13 Nordeste 0 -- -- 84
2017-08-06 03:00:00 15.1 8 Nordeste 16 Nordeste 0 -- -- 80
2017-08-06 02:00:00 16.9 6 Este 11 Sudeste 0 -- -- 77
2017-08-06 01:00:00 18.5 8 Sudeste 17 Este 0 -- -- 72
2017-08-06 00:00:00 19.8 12 Sudeste 23 Sudeste 0 -- -- 68
2017-08-05 23:00:00 21.7 6 Sudeste 18 Este 0 -- -- 63
2017-08-05 22:00:00 22.5 5 Este 16 Sudeste 0 -- -- 61
2017-08-05 21:00:00 24.2 10 Sudeste 32 Sudeste 0 -- -- 55
2017-08-05 20:00:00 28 16 Este 27 Sudeste 0 -- -- 41
2017-08-05 19:00:00 29.1 12 Sudeste 23 Sudeste 0 -- -- 40
2017-08-05 18:00:00 30.1 12 Sudeste 34 Este 0 -- -- 37
2017-08-05 17:00:00 28.6 17 Este 28 Este 0.4 -- -- 47
2017-08-05 16:00:00 26.4 20 Nordeste 33 Nordeste 0.6 -- -- 63
2017-08-05 15:00:00 29.7 21 Nordeste 42 Este 0 -- -- 41
2017-08-05 14:00:00 32 13 Este 27 Este 0 -- -- 34
2017-08-05 13:00:00 33.1 10 Este 24 Este 0 -- -- 30
2017-08-05 12:00:00 33 6 Norte 15 Norte 0 -- -- 30
2017-08-05 11:00:00 30.1 8 Norte 18 Norte 0 -- -- 35
2017-08-05 10:00:00 28.2 3 Sudoeste 12 Sudeste 0 -- -- 39
2017-08-05 09:00:00 25.4 2 Nordeste 13 Oeste 0 -- -- 44
2017-08-05 08:00:00 21.2 10 Oeste 14 Sudoeste 0 -- -- 54
2017-08-05 07:00:00 19.3 2 Sudeste 13 Sudoeste 0 -- -- 58
2017-08-05 06:00:00 18.6 0 Calma 5 Oeste 0 -- -- 62
2017-08-05 05:00:00 21 4 Sudoeste 10 Oeste 0 -- -- 55
2017-08-05 04:00:00 20.3 4 Sudoeste 12 Sur 0 -- -- 57
2017-08-05 03:00:00 22.4 4 Sur 12 Sur 0 -- -- 52
2017-08-05 02:00:00 21.5 0 Calma 8 Sudeste 0 -- -- 61
2017-08-05 01:00:00 23.5 3 Sur 12 Este 0 -- -- 49
2017-08-05 00:00:00 25.2 11 Este 21 Este 0 -- -- 44
2017-08-04 23:00:00 25.9 10 Este 22 Este 0 -- -- 43
2017-08-04 22:00:00 27.2 12 Este 26 Este 0 -- -- 40
2017-08-04 21:00:00 29.6 13 Este 27 Nordeste 0 -- -- 35
2017-08-04 20:00:00 31.6 12 Norte 23 Norte 0 -- -- 29
2017-08-04 19:00:00 33.8 5 Nordeste 24 Norte 0 -- -- 27
2017-08-04 18:00:00 35.7 10 Nordeste 25 Norte 0 -- -- 25
2017-08-04 17:00:00 34.5 15 Norte 30 Norte 0 -- -- 27
2017-08-04 16:00:00 34 12 Norte 25 Noroeste 0 -- -- 26
2017-08-04 15:00:00 33 10 Norte 23 Noroeste 0 -- -- 28
2017-08-04 14:00:00 31.7 7 Sudoeste 25 Noroeste 0 -- -- 30
2017-08-04 13:00:00 31 8 Noroeste 18 Oeste 0 -- -- 32
2017-08-04 12:00:00 29.7 7 Oeste 22 Noroeste 0 -- -- 34
2017-08-04 11:00:00 28.1 12 Noroeste 25 Noroeste 0 -- -- 38
2017-08-04 10:00:00 26.2 10 Noroeste 22 Norte 0 -- -- 41
2017-08-04 09:00:00 23.5 10 Oeste 19 Oeste 0 -- -- 45
2017-08-04 08:00:00 20.9 11 Oeste 18 Oeste 0 -- -- 49
2017-08-04 07:00:00 19.6 11 Oeste 17 Oeste 0 -- -- 49
2017-08-04 06:00:00 20.2 11 Oeste 21 Oeste 0 -- -- 46
2017-08-04 05:00:00 20.7 10 Oeste 20 Oeste 0 -- -- 38
2017-08-04 04:00:00 21.5 14 Oeste 21 Oeste 0 -- -- 34
2017-08-04 03:00:00 21.6 15 Oeste 22 Oeste 0 -- -- 35
2017-08-04 02:00:00 23.2 15 Oeste 21 Oeste 0 -- -- 32
2017-08-04 01:00:00 24.1 16 Noroeste 21 Noroeste 0 -- -- 32
2017-08-04 00:00:00 22.4 9 Oeste 17 Oeste 0 -- -- 43
2017-08-03 23:00:00 23.5 11 Oeste 16 Oeste 0 -- -- 40
2017-08-03 22:00:00 23.6 4 Oeste 10 Oeste 0 -- -- 36
2017-08-03 21:00:00 29.2 4 Sur 12 Este 0 -- -- 28
2017-08-03 20:00:00 33 9 Sudeste 18 Este 0 -- -- 23
2017-08-03 19:00:00 34.6 8 Este 24 Este 0 -- -- 21
2017-08-03 18:00:00 33.8 11 Este 27 Este 0 -- -- 22
2017-08-03 17:00:00 34.5 15 Este 26 Este 0 -- -- 22
2017-08-03 16:00:00 33.1 9 Nordeste 23 Este 0 -- -- 23
2017-08-03 15:00:00 32.3 8 Este 27 Nordeste 0 -- -- 26
2017-08-03 14:00:00 31.7 9 Sudeste 21 Este 0 -- -- 28
2017-08-03 13:00:00 30.2 8 Sudeste 16 Sur 0 -- -- 33
2017-08-03 12:00:00 29.5 8 Sudeste 18 Nordeste 0 -- -- 39
2017-08-03 11:00:00 28.2 9 Nordeste 15 Nordeste 0 -- -- 36
2017-08-03 10:00:00 25.7 5 Oeste 17 Oeste 0 -- -- 49
2017-08-03 09:00:00 22.2 12 Oeste 17 Noroeste 0 -- -- 56
2017-08-03 08:00:00 17.8 7 Oeste 14 Oeste 0 -- -- 71
2017-08-03 07:00:00 16.6 4 Oeste 13 Oeste 0 -- -- 72
2017-08-03 06:00:00 17.5 5 Oeste 11 Oeste 0 -- -- 70
2017-08-03 05:00:00 17.5 7 Oeste 10 Sudoeste 0 -- -- 70
2017-08-03 04:00:00 17.6 0 Calma 12 Sur 0 -- -- 68
2017-08-03 03:00:00 18.2 4 Sur 10 Sudeste 0 -- -- 66
2017-08-03 02:00:00 19.7 6 Sudeste 18 Sudoeste 0 -- -- 61
2017-08-03 01:00:00 21.7 2 Sudeste 12 Este 0 -- -- 53
2017-08-03 00:00:00 22 7 Norte 30 Sudoeste 0 -- -- 54
2017-08-02 23:00:00 23.3 19 Sudoeste 33 Sudoeste 0 -- -- 50
2017-08-02 22:00:00 23.7 13 Sudoeste 30 Sur 0 -- -- 53
2017-08-02 21:00:00 25.1 19 Sur 33 Sur 0 -- -- 51
2017-08-02 20:00:00 27.3 14 Sur 28 Sur 0 -- -- 46
2017-08-02 19:00:00 -- -- -- -- -- -- -- -- --
2017-08-02 18:00:00 27.7 19 Sudeste 40 Sudeste 0 -- -- 41
2017-08-02 17:00:00 26.9 23 Sudeste 39 Sudeste 0 -- -- 40
2017-08-02 16:00:00 27.1 17 Sur 35 Sudeste 0 -- -- 43
2017-08-02 15:00:00 22.2 12 Sudeste 29 Sur 0 -- -- 63
2017-08-02 14:00:00 17.5 14 Sudeste 31 Sudeste 0.2 -- -- 73
2017-08-02 13:00:00 16.6 11 Este 37 Sur 0.2 -- -- 76
2017-08-02 12:00:00 16.9 10 Sur 46 Sur 1 -- -- 70
2017-08-02 11:00:00 18.9 31 Sur 58 Sur 0.2 -- -- 61
2017-08-02 10:00:00 22.8 16 Sudoeste 25 Sudoeste 0 -- -- 49
2017-08-02 09:00:00 22.3 13 Sudoeste 41 Sur 0 -- -- 50
2017-08-02 08:00:00 23.9 13 Sur 27 Sur 0 -- -- 39
2017-08-02 07:00:00 23.6 6 Sur 49 Sudoeste 0 -- -- 31
2017-08-02 06:00:00 18.6 8 Sur 14 Sur 0 -- -- 66
2017-08-02 05:00:00 21.8 9 Sur 31 Sur 0 -- -- 54
2017-08-02 04:00:00 21.3 8 Sudoeste 23 Sur 0 -- -- 58
2017-08-02 03:00:00 21.9 11 Sudoeste 32 Sudoeste 0 -- -- 59
2017-08-02 02:00:00 21.7 15 Sudoeste 43 Sudoeste 0 -- -- 56
2017-08-02 01:00:00 22.8 27 Sudoeste 45 Sur 0 -- -- 47
2017-08-02 00:00:00 23.2 21 Sudoeste 34 Sudoeste 0 -- -- 45
2017-08-01 23:00:00 19.1 7 Oeste 12 Oeste 0 -- -- 52
2017-08-01 22:00:00 22.9 3 Sudoeste 10 Noroeste 0 -- -- 39
2017-08-01 21:00:00 27.8 6 Oeste 27 Oeste 0 -- -- 17
2017-08-01 20:00:00 31 16 Oeste 29 Oeste 0 -- -- 13
2017-08-01 19:00:00 32.5 8 Oeste 27 Sudoeste 0 -- -- 13
2017-08-01 18:00:00 32.2 13 Sudoeste 30 Sudoeste 0 -- -- 14
2017-08-01 17:00:00 31.8 16 Sudoeste 40 Oeste 0 -- -- 15
2017-08-01 16:00:00 30.7 20 Oeste 41 Sudoeste 0 -- -- 17
2017-08-01 15:00:00 30.9 14 Sudoeste 28 Sudoeste 0 -- -- 19
2017-08-01 14:00:00 28.6 8 Noroeste 17 Oeste 0 -- -- 26
2017-08-01 13:00:00 27.7 8 Nordeste 18 Nordeste 0 -- -- 30
2017-08-01 12:00:00 26.9 10 Nordeste 17 Norte 0 -- -- 30
2017-08-01 11:00:00 26.9 7 Sudeste 11 Este 0 -- -- 28
2017-08-01 10:00:00 23.4 7 Este 11 Este 0 -- -- 30
2017-08-01 09:00:00 22.2 4 Nordeste 10 Oeste 0 -- -- 35
2017-08-01 08:00:00 17.5 3 Oeste 12 Oeste 0 -- -- 54
2017-08-01 07:00:00 15.8 8 Oeste 15 Sudoeste 0 -- -- 50
2017-08-01 06:00:00 16.8 6 Oeste 13 Sudoeste 0 -- -- 41
2017-08-01 05:00:00 17.4 3 Sudoeste 12 Sudoeste 0 -- -- 37
2017-08-01 04:00:00 17.1 5 Oeste 11 Sudeste 0 -- -- 36
2017-08-01 03:00:00 18.2 8 Oeste 11 Oeste 0 -- -- 35
2017-08-01 02:00:00 20.5 8 Oeste 15 Oeste 0 -- -- 31
2017-08-01 01:00:00 20.3 4 Sur 14 Oeste 0 -- -- 30
2017-08-01 00:00:00 23.4 9 Oeste 21 Sudoeste 0 -- -- 26
2017-07-31 23:00:00 25.9 11 Sudoeste 15 Sur 0 -- -- 21
2017-07-31 22:00:00 26.2 4 Oeste 12 Oeste 0 -- -- 20
2017-07-31 21:00:00 29.1 6 Oeste 36 Oeste 0 -- -- 18
2017-07-31 20:00:00 31.9 19 Sudoeste 47 Sudoeste 0 -- -- 16
2017-07-31 19:00:00 32.8 23 Sudoeste 41 Sudoeste 0 -- -- 14
2017-07-31 18:00:00 33.3 23 Sudoeste 46 Sudoeste 0 -- -- 14
2017-07-31 17:00:00 34.1 20 Sudoeste 46 Sudoeste 0 -- -- 16
2017-07-31 16:00:00 33.3 26 Oeste 50 Sudoeste 0 -- -- 17
2017-07-31 15:00:00 33.1 23 Sudoeste 42 Sudoeste 0 -- -- 19
2017-07-31 14:00:00 33.1 22 Sudoeste 42 Sudoeste 0 -- -- 19
2017-07-31 13:00:00 32.8 22 Sudoeste 38 Sur 0 -- -- 19
2017-07-31 12:00:00 32.2 16 Sudoeste 39 Sudoeste 0 -- -- 21
2017-07-31 11:00:00 30.8 20 Sudoeste 35 Sudoeste 0 -- -- 25
2017-07-31 10:00:00 27.3 7 Sudeste 15 Sudeste 0 -- -- 40
2017-07-31 09:00:00 23.4 7 Nordeste 11 Nordeste 0 -- -- 45
2017-07-31 08:00:00 19.6 3 Este 16 Sudoeste 0 -- -- 48
2017-07-31 07:00:00 19.5 5 Sur 19 Sudoeste 0 -- -- 49
2017-07-31 06:00:00 22.8 13 Sur 24 Sudoeste 0 -- -- 38
2017-07-31 05:00:00 22 10 Sudoeste 28 Sudoeste 0 -- -- 48
2017-07-31 04:00:00 23.2 21 Sudoeste 31 Sudoeste 0 -- -- 47
2017-07-31 03:00:00 23.9 12 Sur 27 Sudoeste 0 -- -- 44
2017-07-31 02:00:00 24.9 21 Sudoeste 30 Sudoeste 0 -- -- 41
2017-07-31 01:00:00 25.5 21 Sudoeste 31 Sudoeste 0 -- -- 39
2017-07-31 00:00:00 26.2 17 Sudoeste 26 Sudoeste 0 -- -- 34
2017-07-30 23:00:00 23.7 6 Oeste 9 Oeste 0 -- -- 32
2017-07-30 22:00:00 25.2 4 Oeste 7 Sudoeste 0 -- -- 29
2017-07-30 21:00:00 29.2 4 Oeste 19 Oeste 0 -- -- 25
2017-07-30 20:00:00 31.5 13 Oeste 28 Oeste 0 -- -- 21
2017-07-30 19:00:00 33.3 18 Oeste 42 Oeste 0 -- -- 19
2017-07-30 18:00:00 33.7 23 Oeste 39 Oeste 0 -- -- 18
2017-07-30 17:00:00 32.9 17 Oeste 40 Sudoeste 0 -- -- 19
2017-07-30 16:00:00 33.5 21 Oeste 48 Sudoeste 0 -- -- 17
2017-07-30 15:00:00 32.9 25 Oeste 51 Oeste 0 -- -- 17
2017-07-30 14:00:00 32.4 23 Oeste 49 Oeste 0 -- -- 17
2017-07-30 13:00:00 31.9 18 Oeste 40 Oeste 0 -- -- 18
2017-07-30 12:00:00 32.7 9 Este 26 Este 0 -- -- 22
2017-07-30 11:00:00 30.6 12 Este 18 Este 0 -- -- 26
2017-07-30 10:00:00 26.4 5 Noroeste 13 Oeste 0 -- -- 31
2017-07-30 09:00:00 23.3 8 Oeste 15 Oeste 0 -- -- 34
2017-07-30 08:00:00 17.9 10 Oeste 15 Oeste 0 -- -- 43
2017-07-30 07:00:00 17.2 5 Oeste 14 Oeste 0 -- -- 42
2017-07-30 06:00:00 17.3 3 Noroeste 11 Oeste 0 -- -- 41
2017-07-30 05:00:00 18.4 9 Oeste 16 Oeste 0 -- -- 38
2017-07-30 04:00:00 19 4 Oeste 10 Oeste 0 -- -- 35
2017-07-30 03:00:00 20.2 5 Oeste 15 Oeste 0 -- -- 32
2017-07-30 02:00:00 20.7 8 Oeste 10 Oeste 0 -- -- 31
2017-07-30 01:00:00 20.5 8 Oeste 12 Oeste 0 -- -- 32
2017-07-30 00:00:00 22.3 7 Oeste 14 Noroeste 0 -- -- 30
2017-07-29 23:00:00 23.1 3 Nordeste 18 Sudoeste 0 -- -- 30
2017-07-29 22:00:00 27.6 12 Sudoeste 29 Sudoeste 0 -- -- 25
2017-07-29 21:00:00 28.8 9 Sudoeste 31 Oeste 0 -- -- 23
2017-07-29 20:00:00 31.7 18 Oeste 39 Oeste 0 -- -- 20
2017-07-29 19:00:00 32.9 19 Oeste 35 Sudoeste 0 -- -- 17
2017-07-29 18:00:00 32.5 19 Oeste 33 Oeste 0 -- -- 17
2017-07-29 17:00:00 32.2 19 Oeste 38 Sudoeste 0 -- -- 20
2017-07-29 16:00:00 33.1 21 Oeste 39 Oeste 0 -- -- 18
2017-07-29 15:00:00 32.5 21 Oeste 40 Oeste 0 -- -- 20
2017-07-29 14:00:00 32.1 20 Sudoeste 39 Sudoeste 0 -- -- 19
2017-07-29 13:00:00 31 21 Oeste 43 Oeste 0 -- -- 17
2017-07-29 12:00:00 30.5 23 Oeste 40 Oeste 0 -- -- 19
2017-07-29 11:00:00 29.4 13 Oeste 28 Oeste 0 -- -- 28
2017-07-29 10:00:00 28.1 8 Oeste 15 Oeste 0 -- -- 29
2017-07-29 09:00:00 23.4 5 Noroeste 10 Noroeste 0 -- -- 34
2017-07-29 08:00:00 18.6 8 Oeste 15 Oeste 0 -- -- 37
2017-07-29 07:00:00 13.3 5 Oeste 10 Oeste 0 -- -- 52
2017-07-29 06:00:00 14.4 9 Oeste 12 Oeste 0 -- -- 48
2017-07-29 05:00:00 14.3 4 Oeste 12 Oeste 0 -- -- 49
2017-07-29 04:00:00 16.6 4 Noroeste 9 Oeste 0 -- -- 46
2017-07-29 03:00:00 17.3 2 Este 10 Oeste 0 -- -- 55
2017-07-29 02:00:00 17.9 2 Noroeste 10 Nordeste 0 -- -- 80
2017-07-29 01:00:00 18.4 3 Oeste 9 Oeste 0 -- -- 78
2017-07-29 00:00:00 20.2 4 Oeste 8 Sur 0 -- -- 71
2017-07-28 23:00:00 23.5 4 Sur 11 Sudeste 0 -- -- 66
2017-07-28 22:00:00 25.4 6 Sudeste 19 Sudeste 0 -- -- 46
2017-07-28 21:00:00 28 15 Este 27 Este 0 -- -- 38
2017-07-28 20:00:00 31 17 Este 36 Norte 0 -- -- 33
2017-07-28 19:00:00 34.6 9 Oeste 26 Noroeste 0 -- -- 14
2017-07-28 18:00:00 34.2 15 Noroeste 26 Oeste 0 -- -- 14
2017-07-28 17:00:00 34 13 Noroeste 39 Oeste 0 -- -- 14
2017-07-28 16:00:00 33.6 14 Noroeste 39 Oeste 0 -- -- 15
2017-07-28 15:00:00 33.2 13 Oeste 33 Oeste 0 -- -- 17
2017-07-28 14:00:00 31.6 15 Noroeste 34 Norte 0 -- -- 22
2017-07-28 13:00:00 30.9 15 Norte 27 Norte 0 -- -- 25
2017-07-28 12:00:00 30.3 9 Norte 18 Noroeste 0 -- -- 30
2017-07-28 11:00:00 27.7 10 Oeste 21 Oeste 0 -- -- 32
2017-07-28 10:00:00 25.7 11 Oeste 18 Oeste 0 -- -- 33
2017-07-28 09:00:00 22.3 4 Sudeste 13 Oeste 0 -- -- 42
2017-07-28 08:00:00 17.4 6 Oeste 16 Oeste 0 -- -- 51
2017-07-28 07:00:00 15.4 3 Oeste 15 Oeste 0 -- -- 56
2017-07-28 06:00:00 15.6 7 Oeste 13 Oeste 0 -- -- 59
2017-07-28 05:00:00 16.1 2 Oeste 17 Oeste 0 -- -- 58
2017-07-28 04:00:00 15.5 2 Oeste 12 Oeste 0 -- -- 60
2017-07-28 03:00:00 16.3 3 Oeste 10 Oeste 0 -- -- 57
2017-07-28 02:00:00 17.2 6 Oeste 8 Oeste 0 -- -- 54
2017-07-28 01:00:00 20.2 4 Sudeste 7 Sur 0 -- -- 47
2017-07-28 00:00:00 19.9 2 Oeste 6 Oeste 0 -- -- 47
2017-07-27 23:00:00 23.4 4 Norte 10 Nordeste 0 -- -- 39
2017-07-27 22:00:00 26.8 7 Noroeste 16 Noroeste 0 -- -- 29
2017-07-27 21:00:00 30.4 9 Noroeste 24 Oeste 0 -- -- 24
2017-07-27 20:00:00 32.1 14 Oeste 32 Oeste 0 -- -- 23
2017-07-27 19:00:00 33.3 12 Noroeste 30 Oeste 0 -- -- 23
2017-07-27 18:00:00 32.8 17 Noroeste 33 Oeste 0 -- -- 23
2017-07-27 17:00:00 32.3 14 Noroeste 32 Oeste 0 -- -- 23
2017-07-27 16:00:00 32.5 12 Oeste 37 Noroeste 0 -- -- 23
2017-07-27 15:00:00 31.5 18 Oeste 39 Noroeste 0 -- -- 23
2017-07-27 14:00:00 30.9 15 Oeste 36 Oeste 0 -- -- 25
2017-07-27 13:00:00 30.1 14 Noroeste 33 Oeste 0 -- -- 26
2017-07-27 12:00:00 29.5 11 Noroeste 28 Oeste 0 -- -- 27
2017-07-27 11:00:00 27.8 13 Oeste 23 Oeste 0 -- -- 29
2017-07-27 10:00:00 26.3 9 Oeste 19 Oeste 0 -- -- 32
2017-07-27 09:00:00 23 8 Noroeste 12 Oeste 0 -- -- 42
2017-07-27 08:00:00 17.9 3 Oeste 8 Oeste 0 -- -- 56
2017-07-27 07:00:00 14.6 3 Oeste 9 Sudoeste 0 -- -- 67
2017-07-27 06:00:00 13.6 5 Oeste 10 Oeste 0 -- -- 74
2017-07-27 05:00:00 13.4 3 Oeste 7 Oeste 0 -- -- 76
2017-07-27 04:00:00 14.6 5 Oeste 11 Oeste 0 -- -- 72
2017-07-27 03:00:00 14.7 4 Oeste 8 Oeste 0 -- -- 71
2017-07-27 02:00:00 15.6 2 Nordeste 4 Nordeste 0 -- -- 69
2017-07-27 01:00:00 16.4 4 Este 10 Sudeste 0 -- -- 66
2017-07-27 00:00:00 18.6 8 Sudeste 14 Este 0 -- -- 60
2017-07-26 23:00:00 19.5 7 Este 14 Este 0 -- -- 56
2017-07-26 22:00:00 21.3 5 Nordeste 21 Nordeste 0 -- -- 49
2017-07-26 21:00:00 24.1 13 Nordeste 22 Nordeste 0 -- -- 42
2017-07-26 20:00:00 28.7 9 Noroeste 19 Noroeste 0 -- -- 32
2017-07-26 19:00:00 28.8 11 Norte 27 Oeste 0 -- -- 30
2017-07-26 18:00:00 28.5 12 Norte 28 Oeste 0 -- -- 30
2017-07-26 17:00:00 27.8 11 Norte 30 Norte 0 -- -- 31
2017-07-26 16:00:00 27.3 14 Norte 31 Norte 0 -- -- 33
2017-07-26 15:00:00 26.8 11 Norte 27 Norte 0 -- -- 34
2017-07-26 14:00:00 25.2 14 Norte 30 Noroeste 0 -- -- 36
2017-07-26 13:00:00 23.8 14 Noroeste 27 Norte 0 -- -- 38
2017-07-26 12:00:00 22.2 13 Noroeste 24 Noroeste 0 -- -- 41
2017-07-26 11:00:00 20 11 Noroeste 26 Noroeste 0 -- -- 41
2017-07-26 10:00:00 17.5 10 Noroeste 21 Noroeste 0 -- -- 45
2017-07-26 09:00:00 15.1 10 Oeste 17 Oeste 0 -- -- 51
2017-07-26 08:00:00 12.6 3 Oeste 11 Sudoeste 0 -- -- 62
2017-07-26 07:00:00 10.6 4 Sudoeste 22 Oeste 0 -- -- 69
2017-07-26 06:00:00 11.4 13 Oeste 21 Sudoeste 0 -- -- 69
2017-07-26 05:00:00 10.8 11 Oeste 19 Oeste 0 -- -- 73
2017-07-26 04:00:00 11.6 8 Oeste 17 Oeste 0 -- -- 70
2017-07-26 03:00:00 9.6 6 Oeste 9 Oeste 0 -- -- 80
2017-07-26 02:00:00 11 4 Sudeste 8 Sudeste 0 -- -- 77
2017-07-26 01:00:00 11.8 3 Este 9 Sur 0 -- -- 71
2017-07-26 00:00:00 13 0 Calma 6 Nordeste 0 -- -- 68
2017-07-25 23:00:00 14.2 4 Nordeste 10 Nordeste 0 -- -- 62
2017-07-25 22:00:00 16 7 Este 15 Nordeste 0 -- -- 57
2017-07-25 21:00:00 18.4 13 Nordeste 23 Nordeste 0 -- -- 51
2017-07-25 20:00:00 20.6 14 Este 25 Este 0 -- -- 45
2017-07-25 19:00:00 24.7 9 Nordeste 28 Nordeste 0 -- -- 36
2017-07-25 18:00:00 25.1 17 Nordeste 30 Este 0 -- -- 33
2017-07-25 17:00:00 24.8 13 Norte 27 Norte 0 -- -- 31
2017-07-25 16:00:00 24.4 13 Nordeste 31 Nordeste 0 -- -- 33
2017-07-25 15:00:00 23.8 12 Nordeste 26 Nordeste 0 -- -- 35
2017-07-25 14:00:00 22.2 9 Nordeste 28 Nordeste 0 -- -- 39
2017-07-25 13:00:00 21.8 12 Nordeste 22 Nordeste 0 -- -- 42
2017-07-25 12:00:00 20.2 5 Sudeste 21 Nordeste 0 -- -- 47
2017-07-25 11:00:00 19.1 9 Este 20 Nordeste 0 -- -- 50
2017-07-25 10:00:00 16.2 3 Norte 10 Este 0 -- -- 62
2017-07-25 09:00:00 14.1 9 Este 12 Este 0 -- -- 72
2017-07-25 08:00:00 12.6 4 Sudeste 10 Sudeste 0 -- -- 79
2017-07-25 07:00:00 11.8 5 Sudeste 8 Este 0 -- -- 84
2017-07-25 06:00:00 12 4 Este 12 Este 0 -- -- 83
2017-07-25 05:00:00 12 7 Este 12 Este 0 -- -- 85
2017-07-25 04:00:00 11.9 8 Este 15 Este 0 -- -- 87
2017-07-25 03:00:00 10.3 2 Sudeste 6 Este 0 -- -- 86
2017-07-25 02:00:00 11.2 0 Calma 8 Sudeste 0 -- -- 82
2017-07-25 01:00:00 12.8 2 Este 5 Este 0 -- -- 79
2017-07-25 00:00:00 13.6 3 Nordeste 6 Este 0 -- -- 76
2017-07-24 23:00:00 14.8 3 Este 18 Este 0 -- -- 73
2017-07-24 22:00:00 16.2 11 Este 27 Este 0 -- -- 68
2017-07-24 21:00:00 18.7 17 Nordeste 36 Nordeste 0 -- -- 58
2017-07-24 20:00:00 21.8 21 Nordeste 41 Nordeste 0 -- -- 49
2017-07-24 19:00:00 24.8 22 Nordeste 35 Nordeste 0 -- -- 40
2017-07-24 18:00:00 26.2 17 Norte 30 Norte 0 -- -- 36
2017-07-24 17:00:00 26.6 13 Norte 30 Norte 0 -- -- 33
2017-07-24 16:00:00 25.9 10 Norte 25 Noroeste 0 -- -- 34
2017-07-24 15:00:00 25.2 12 Noroeste 29 Nordeste 0 -- -- 35
2017-07-24 14:00:00 23.7 10 Norte 27 Norte 0 -- -- 43
2017-07-24 13:00:00 22.7 14 Norte 23 Norte 0 -- -- 48
2017-07-24 12:00:00 22.2 8 Norte 17 Nordeste 0 -- -- 51
2017-07-24 11:00:00 21.4 11 Nordeste 19 Este 0 -- -- 56
2017-07-24 10:00:00 17.7 11 Nordeste 21 Nordeste 0 -- -- 70
2017-07-24 09:00:00 15.2 11 Este 21 Este 0 -- -- 80
2017-07-24 08:00:00 13.1 7 Este 14 Sudeste 0 -- -- 88
2017-07-24 07:00:00 11.1 7 Este 13 Este 0 -- -- 89
2017-07-24 06:00:00 11.8 6 Sudeste 10 Este 0 -- -- 83
2017-07-24 05:00:00 12.3 6 Este 11 Este 0 -- -- 82
2017-07-24 04:00:00 13.1 4 Este 17 Este 0 -- -- 77
2017-07-24 03:00:00 14.2 4 Este 11 Este 0 -- -- 73
2017-07-24 02:00:00 15.5 9 Sudeste 14 Este 0 -- -- 68
2017-07-24 01:00:00 16.4 10 Este 20 Nordeste 0 -- -- 63
2017-07-24 00:00:00 18.1 12 Nordeste 21 Este 0 -- -- 60
2017-07-23 23:00:00 19.3 6 Nordeste 17 Nordeste 0 -- -- 63
2017-07-23 22:00:00 21.1 11 Nordeste 23 Nordeste 0 -- -- 58
2017-07-23 21:00:00 23.9 10 Este 17 Este 0 -- -- 45
2017-07-23 20:00:00 27.4 11 Este 21 Este 0 -- -- 37
2017-07-23 19:00:00 27.8 11 Este 19 Este 0 -- -- 39
2017-07-23 18:00:00 26.6 14 Este 24 Este 0 -- -- 40
2017-07-23 17:00:00 24.8 14 Sudeste 35 Este 0 -- -- 42
2017-07-23 16:00:00 23.5 14 Sudeste 35 Este 0 -- -- 53
2017-07-23 15:00:00 24 25 Este 39 Este 0 -- -- 55
2017-07-23 14:00:00 27.9 11 Este 23 Este 0 -- -- 42
2017-07-23 13:00:00 26.5 12 Este 22 Este 0 -- -- 46
2017-07-23 12:00:00 26.3 14 Este 23 Sudeste 0 -- -- 46
2017-07-23 11:00:00 25.1 5 Nordeste 19 Sudeste 0 -- -- 45
2017-07-23 10:00:00 21.5 11 Este 18 Sudeste 0 -- -- 58
2017-07-23 09:00:00 18.5 6 Este 11 Sudeste 0 -- -- 67
2017-07-23 08:00:00 13.6 0 Calma 4 Noroeste 0 -- -- 75
2017-07-23 07:00:00 10.6 0 Calma 9 Oeste 0 -- -- 77
2017-07-23 06:00:00 11.3 4 Oeste 7 Oeste 0 -- -- 76
2017-07-23 05:00:00 12.7 2 Oeste 6 Oeste 0 -- -- 76
2017-07-23 04:00:00 13.2 3 Oeste 8 Oeste 0 -- -- 74
2017-07-23 03:00:00 14 4 Oeste 6 Oeste 0 -- -- 73
2017-07-23 02:00:00 16.3 4 Oeste 10 Oeste 0 -- -- 52
2017-07-23 01:00:00 18 10 Oeste 14 Oeste 0 -- -- 33
2017-07-23 00:00:00 19.2 11 Oeste 13 Oeste 0 -- -- 31
2017-07-22 23:00:00 19.8 11 Oeste 14 Oeste 0 -- -- 29
2017-07-22 22:00:00 23.3 4 Oeste 28 Oeste 0 -- -- 23
2017-07-22 21:00:00 26.9 12 Oeste 27 Oeste 0 -- -- 19
2017-07-22 20:00:00 29.4 16 Oeste 32 Sudoeste 0 -- -- 18
2017-07-22 19:00:00 30.2 18 Oeste 38 Oeste 0 -- -- 17
2017-07-22 18:00:00 30.4 19 Oeste 42 Oeste 0 -- -- 18
2017-07-22 17:00:00 30 18 Oeste 39 Oeste 0 -- -- 20
2017-07-22 16:00:00 29.9 21 Oeste 36 Oeste 0 -- -- 22
2017-07-22 15:00:00 29.3 19 Oeste 37 Oeste 0 -- -- 22
2017-07-22 14:00:00 28.5 17 Oeste 36 Sudoeste 0 -- -- 25
2017-07-22 13:00:00 28.1 15 Oeste 43 Sudoeste 0 -- -- 26
2017-07-22 12:00:00 27.2 19 Sudoeste 34 Sudoeste 0 -- -- 28
2017-07-22 11:00:00 26.1 11 Oeste 23 Oeste 0 -- -- 27
2017-07-22 10:00:00 24.3 8 Sudoeste 15 Oeste 0 -- -- 33
2017-07-22 09:00:00 19.6 0 Calma 11 Norte 0 -- -- 47
2017-07-22 08:00:00 18.2 6 Oeste 24 Sudoeste 0 -- -- 48
2017-07-22 07:00:00 18.5 16 Sudoeste 23 Sudoeste 0 -- -- 45
2017-07-22 06:00:00 18.4 18 Sudoeste 25 Sudoeste 0 -- -- 45
2017-07-22 05:00:00 18.6 17 Sudoeste 27 Sudoeste 0 -- -- 38
2017-07-22 04:00:00 18.4 13 Sudoeste 19 Sur 0 -- -- 36
2017-07-22 03:00:00 15.5 6 Oeste 9 Oeste 0 -- -- 43
2017-07-22 02:00:00 16.2 2 Oeste 4 Noroeste 0 -- -- 43
2017-07-22 01:00:00 16.3 0 Calma 5 Oeste 0 -- -- 44
2017-07-22 00:00:00 17.9 3 Oeste 5 Noroeste 0 -- -- 41
2017-07-21 23:00:00 19.4 0 Calma 11 Oeste 0 -- -- 38
2017-07-21 22:00:00 22.7 5 Oeste 24 Oeste 0 -- -- 32
2017-07-21 21:00:00 25.6 11 Oeste 32 Oeste 0 -- -- 27
2017-07-21 20:00:00 27.6 18 Oeste 32 Oeste 0 -- -- 23
2017-07-21 19:00:00 28.1 21 Noroeste 40 Oeste 0 -- -- 22
2017-07-21 18:00:00 28.4 19 Oeste 42 Oeste 0 -- -- 25
2017-07-21 17:00:00 27.8 16 Oeste 33 Oeste 0 -- -- 28
2017-07-21 16:00:00 27.8 16 Oeste 40 Oeste 0 -- -- 30
2017-07-21 15:00:00 27.1 20 Oeste 39 Oeste 0 -- -- 30
2017-07-21 14:00:00 26.7 15 Oeste 34 Oeste 0 -- -- 32
2017-07-21 13:00:00 26.4 13 Oeste 31 Oeste 0 -- -- 32
2017-07-21 12:00:00 27.3 13 Oeste 32 Oeste 0 -- -- 30
2017-07-21 11:00:00 25.9 7 Sudoeste 23 Oeste 0 -- -- 38
2017-07-21 10:00:00 23.2 10 Oeste 19 Oeste 0 -- -- 52
2017-07-21 09:00:00 21.5 5 Este 13 Sur 0 -- -- 65
2017-07-21 08:00:00 18.9 5 Sur 13 Sudoeste 0 -- -- 76
2017-07-21 07:00:00 16.2 2 Sur 10 Norte 0 -- -- 86
2017-07-21 06:00:00 16.5 4 Oeste 9 Sudeste 0 -- -- 84
2017-07-21 05:00:00 17.9 6 Sudeste 12 Sudeste 0 -- -- 82
2017-07-21 04:00:00 18.6 3 Sudeste 18 Sudeste 0 -- -- 80
2017-07-21 03:00:00 19.1 7 Sur 17 Sudeste 0 -- -- 79
2017-07-21 02:00:00 19 9 Este 25 Este 0 -- -- 78
2017-07-21 01:00:00 19.4 13 Sudeste 28 Sudeste 0 -- -- 69
2017-07-21 00:00:00 20 17 Sudeste 29 Sudeste 0 -- -- 65
2017-07-20 23:00:00 20.7 18 Este 26 Este 0 -- -- 58
2017-07-20 22:00:00 21.7 18 Este 31 Este 0 -- -- 55
2017-07-20 21:00:00 23.5 17 Este 32 Este 0 -- -- 48
2017-07-20 20:00:00 26.5 18 Este 36 Este 0 -- -- 41
2017-07-20 19:00:00 27.3 15 Este 41 Este 0 -- -- 39
2017-07-20 18:00:00 28.3 17 Nordeste 35 Nordeste 0 -- -- 36
2017-07-20 17:00:00 29.8 15 Nordeste 29 Nordeste 0 -- -- 33
2017-07-20 16:00:00 27.5 8 Nordeste 28 Norte 0 -- -- 34
2017-07-20 15:00:00 28.8 9 Este 30 Nordeste 0 -- -- 32
2017-07-20 14:00:00 27 7 Norte 27 Este 0 -- -- 36
2017-07-20 13:00:00 26.2 13 Este 21 Este 0 -- -- 39
2017-07-20 12:00:00 23.3 12 Sudeste 22 Sudeste 0 -- -- 49
2017-07-20 11:00:00 21.8 12 Este 22 Este 0 -- -- 55
2017-07-20 10:00:00 19.7 12 Este 21 Este 0 -- -- 60
2017-07-20 09:00:00 17.5 11 Este 18 Este 0 -- -- 70
2017-07-20 08:00:00 14 2 Nordeste 5 Nordeste 0 -- -- 83
2017-07-20 07:00:00 12.7 0 Calma 6 Nordeste 0 -- -- 86
2017-07-20 06:00:00 13.2 0 Calma 3 Norte 0 -- -- 84
2017-07-20 05:00:00 13.4 0 Calma 9 Oeste 0 -- -- 80
2017-07-20 04:00:00 14.4 0 Calma 6 Oeste 0 -- -- 70
2017-07-20 03:00:00 15.9 2 Sudoeste 12 Nordeste 0 -- -- 55
2017-07-20 02:00:00 17.9 3 Oeste 14 Oeste 0 -- -- 41
2017-07-20 01:00:00 19.5 10 Oeste 16 Noroeste 0 -- -- 38
2017-07-20 00:00:00 20.8 10 Oeste 13 Oeste 0 -- -- 35
2017-07-19 23:00:00 22.2 5 Oeste 12 Oeste 0 -- -- 33
2017-07-19 22:00:00 24.1 6 Oeste 22 Oeste 0 -- -- 31
2017-07-19 21:00:00 26.7 11 Oeste 36 Oeste 0 -- -- 27
2017-07-19 20:00:00 28.5 15 Oeste 28 Sudoeste 0 -- -- 26
2017-07-19 19:00:00 28.8 18 Oeste 51 Oeste 0 -- -- 26
2017-07-19 18:00:00 30.3 23 Oeste 41 Oeste 0 -- -- 25
2017-07-19 17:00:00 30.7 16 Sudoeste 38 Sudoeste 0 -- -- 26
2017-07-19 16:00:00 29.9 19 Sudoeste 41 Sudoeste 0 -- -- 25
2017-07-19 15:00:00 30.4 19 Sudoeste 41 Sudoeste 0 -- -- 27
2017-07-19 14:00:00 29.9 23 Sudoeste 50 Sudoeste 0 -- -- 26
2017-07-19 13:00:00 28.7 21 Sudoeste 43 Sudoeste 0 -- -- 31
2017-07-19 12:00:00 28.5 19 Oeste 37 Sudoeste 0 -- -- 32
2017-07-19 11:00:00 27.5 18 Sudoeste 32 Sudoeste 0 -- -- 34
2017-07-19 10:00:00 25.8 12 Sur 28 Sudoeste 0 -- -- 39
2017-07-19 09:00:00 23.2 8 Sudoeste 17 Sudoeste 0 -- -- 42
2017-07-19 08:00:00 20.1 9 Sudoeste 30 Sudoeste 0 -- -- 51
2017-07-19 07:00:00 20.5 14 Sudoeste 40 Sur 0 -- -- 48
2017-07-19 06:00:00 20.7 19 Sudoeste 49 Sur 0 -- -- 48
2017-07-19 05:00:00 21.8 26 Sur 60 Sur 0 -- -- 46
2017-07-19 04:00:00 20.6 16 Sudoeste 45 Sur 0.2 -- -- 54
2017-07-19 03:00:00 22.2 18 Sur 33 Sur 0 -- -- 47
2017-07-19 02:00:00 20.8 14 Sudeste 24 Sudeste 0 -- -- 51
2017-07-19 01:00:00 18.7 9 Sudeste 38 Sudoeste 0.4 -- -- 61
2017-07-19 00:00:00 23.8 18 Sudoeste 41 Sudoeste 0 -- -- 35